createdAt,value
2018-08-18T00:00:35.666Z,15.65
2018-08-18T00:01:35.589Z,15.69
2018-08-18T00:03:28.608Z,15.75
2018-08-18T00:04:28.528Z,15.72
2018-08-18T00:06:21.542Z,15.84
2018-08-18T00:07:21.466Z,15.68
2018-08-18T00:09:14.235Z,15.75
2018-08-18T00:10:14.152Z,15.69
2018-08-18T00:12:06.923Z,15.57
2018-08-18T00:13:06.833Z,15.57
2018-08-18T00:14:59.863Z,15.51
2018-08-18T00:15:59.781Z,15.60
2018-08-18T00:17:52.555Z,15.49
2018-08-18T00:18:52.461Z,15.47
2018-08-18T00:20:45.224Z,15.54
2018-08-18T00:21:45.148Z,15.53
2018-08-18T00:23:38.189Z,15.60
2018-08-18T00:24:38.105Z,15.72
2018-08-18T00:26:31.132Z,15.62
2018-08-18T00:27:31.050Z,15.60
2018-08-18T00:29:24.079Z,15.34
2018-08-18T00:30:23.991Z,15.39
2018-08-18T00:32:16.763Z,15.31
2018-08-18T00:33:16.670Z,15.23
2018-08-18T00:35:09.426Z,15.46
2018-08-18T00:36:09.364Z,15.44
2018-08-18T00:38:02.118Z,15.29
2018-08-18T00:39:02.022Z,15.49
2018-08-18T00:40:54.787Z,15.46
2018-08-18T00:41:54.706Z,15.47
2018-08-18T00:43:47.503Z,15.56
2018-08-18T00:44:47.384Z,15.51
2018-08-18T00:46:40.211Z,15.60
2018-08-18T00:47:40.129Z,15.67
2018-08-18T00:49:33.197Z,15.35
2018-08-18T00:50:33.112Z,15.34
2018-08-18T00:52:25.874Z,15.49
2018-08-18T00:53:25.795Z,15.51
2018-08-18T00:55:18.823Z,15.38
2018-08-18T00:56:18.743Z,15.35
2018-08-18T00:58:11.498Z,15.32
2018-08-18T00:59:11.415Z,15.27
2018-08-18T01:01:04.164Z,15.11
2018-08-18T01:02:04.092Z,15.11
2018-08-18T01:03:56.847Z,15.17
2018-08-18T01:04:56.759Z,15.07
2018-08-18T01:06:49.510Z,15.03
2018-08-18T01:07:49.432Z,15.07
2018-08-18T01:09:43.183Z,15.02
2018-08-18T01:10:43.099Z,15.10
2018-08-18T01:12:36.212Z,15.25
2018-08-18T01:13:36.044Z,15.16
2018-08-18T01:15:29.055Z,15.01
2018-08-18T01:16:28.936Z,14.99
2018-08-18T01:18:21.945Z,15.17
2018-08-18T01:19:21.860Z,15.20
2018-08-18T01:21:14.600Z,15.14
2018-08-18T01:22:14.525Z,14.96
2018-08-18T01:24:07.289Z,14.95
2018-08-18T01:25:07.203Z,14.83
2018-08-18T01:27:00.002Z,14.88
2018-08-18T01:27:59.876Z,14.91
2018-08-18T01:29:52.638Z,14.84
2018-08-18T01:30:52.556Z,14.92
2018-08-18T01:32:45.303Z,14.94
2018-08-18T01:33:45.227Z,14.98
2018-08-18T01:35:38.220Z,15.03
2018-08-18T01:36:38.134Z,15.03
2018-08-18T01:38:30.888Z,15.10
2018-08-18T01:39:30.814Z,15.06
2018-08-18T01:41:23.821Z,14.99
2018-08-18T01:42:23.737Z,14.88
2018-08-18T01:44:16.499Z,14.86
2018-08-18T01:45:16.415Z,14.83
2018-08-18T01:47:09.165Z,14.81
2018-08-18T01:48:09.088Z,14.86
2018-08-18T01:50:01.847Z,15.01
2018-08-18T01:51:01.762Z,15.01
2018-08-18T01:52:54.525Z,15.11
2018-08-18T01:53:54.461Z,15.02
2018-08-18T01:55:47.202Z,14.91
2018-08-18T01:56:47.119Z,14.91
2018-08-18T01:58:40.103Z,14.80
2018-08-18T01:59:40.028Z,14.70
2018-08-18T02:01:32.856Z,14.81
2018-08-18T02:02:32.769Z,14.72
2018-08-18T02:04:25.758Z,14.69
2018-08-18T02:05:25.680Z,14.70
2018-08-18T02:07:18.445Z,14.65
2018-08-18T02:08:18.357Z,14.62
2018-08-18T02:10:11.114Z,14.61
2018-08-18T02:11:11.031Z,14.58
2018-08-18T02:13:03.781Z,14.65
2018-08-18T02:14:03.704Z,14.58
2018-08-18T02:15:56.463Z,14.72
2018-08-18T02:16:56.377Z,14.80
2018-08-18T02:18:49.128Z,14.69
2018-08-18T02:19:49.072Z,14.64
2018-08-18T02:21:41.810Z,14.70
2018-08-18T02:22:41.724Z,14.68
2018-08-18T02:24:34.732Z,14.77
2018-08-18T02:25:34.652Z,14.61
2018-08-18T02:27:27.647Z,14.64
2018-08-18T02:28:27.561Z,14.64
2018-08-18T02:30:20.331Z,14.75
2018-08-18T02:31:20.239Z,14.70
2018-08-18T02:33:12.991Z,14.42
2018-08-18T02:34:12.915Z,14.47
2018-08-18T02:36:05.675Z,14.47
2018-08-18T02:37:05.590Z,14.55
2018-08-18T02:38:58.349Z,14.51
2018-08-18T02:39:58.279Z,14.43
2018-08-18T02:41:51.026Z,14.40
2018-08-18T02:42:50.940Z,14.36
2018-08-18T02:44:44.385Z,14.40
2018-08-18T02:45:44.304Z,14.45
2018-08-18T02:47:37.179Z,14.54
2018-08-18T02:48:37.097Z,14.51
2018-08-18T02:50:29.986Z,14.45
2018-08-18T02:51:29.886Z,14.40
2018-08-18T02:53:22.893Z,14.25
2018-08-18T02:54:22.812Z,14.20
2018-08-18T02:56:15.571Z,14.14
2018-08-18T02:57:15.487Z,14.03
2018-08-18T02:59:08.236Z,13.99
2018-08-18T03:00:08.159Z,13.96
2018-08-18T03:02:00.929Z,13.96
2018-08-18T03:03:00.841Z,13.95
2018-08-18T03:04:53.597Z,13.97
2018-08-18T03:05:53.520Z,13.99
2018-08-18T03:07:46.284Z,13.84
2018-08-18T03:08:46.197Z,13.92
2018-08-18T03:10:38.944Z,13.92
2018-08-18T03:11:38.865Z,13.87
2018-08-18T03:13:31.872Z,13.91
2018-08-18T03:14:31.782Z,13.84
2018-08-18T03:16:24.601Z,13.81
2018-08-18T03:17:24.515Z,13.78
2018-08-18T03:19:17.271Z,13.79
2018-08-18T03:20:17.195Z,13.70
2018-08-18T03:22:10.157Z,13.67
2018-08-18T03:23:10.063Z,13.79
2018-08-18T03:25:02.820Z,13.67
2018-08-18T03:26:02.742Z,13.63
2018-08-18T03:27:55.503Z,13.66
2018-08-18T03:28:55.469Z,13.71
2018-08-18T03:30:48.173Z,13.66
2018-08-18T03:31:48.086Z,13.70
2018-08-18T03:33:41.088Z,13.62
2018-08-18T03:34:41.007Z,13.62
2018-08-18T03:36:33.998Z,13.71
2018-08-18T03:37:33.925Z,13.66
2018-08-18T03:39:26.914Z,13.79
2018-08-18T03:40:26.828Z,13.71
2018-08-18T03:42:19.591Z,13.66
2018-08-18T03:43:19.505Z,13.71
2018-08-18T03:45:12.266Z,13.75
2018-08-18T03:46:12.187Z,13.69
2018-08-18T03:48:04.947Z,13.85
2018-08-18T03:49:04.858Z,13.73
2018-08-18T03:50:57.611Z,13.84
2018-08-18T03:51:57.537Z,13.96
2018-08-18T03:53:50.293Z,13.95
2018-08-18T03:54:50.205Z,13.97
2018-08-18T03:56:43.503Z,14.06
2018-08-18T03:57:43.423Z,13.99
2018-08-18T03:59:36.188Z,13.91
2018-08-18T04:00:36.095Z,13.84
2018-08-18T04:02:29.120Z,13.82
2018-08-18T04:03:29.021Z,13.95
2018-08-18T04:05:21.781Z,13.91
2018-08-18T04:06:21.708Z,13.95
2018-08-18T04:08:14.486Z,13.95
2018-08-18T04:09:14.417Z,14.09
2018-08-18T04:11:07.147Z,13.91
2018-08-18T04:12:07.065Z,13.97
2018-08-18T04:13:59.822Z,13.96
2018-08-18T04:14:59.745Z,13.97
2018-08-18T04:16:52.485Z,14.10
2018-08-18T04:17:52.407Z,14.17
2018-08-18T04:19:45.169Z,14.21
2018-08-18T04:20:45.082Z,14.15
2018-08-18T04:22:38.083Z,14.10
2018-08-18T04:23:37.994Z,14.04
2018-08-18T04:25:30.986Z,13.99
2018-08-18T04:26:30.909Z,14.03
2018-08-18T04:28:23.672Z,13.97
2018-08-18T04:29:23.596Z,13.95
2018-08-18T04:31:16.336Z,13.92
2018-08-18T04:32:16.258Z,13.96
2018-08-18T04:34:09.137Z,13.95
2018-08-18T04:35:08.967Z,13.89
2018-08-18T04:37:01.714Z,13.84
2018-08-18T04:38:01.634Z,13.87
2018-08-18T04:39:54.519Z,13.96
2018-08-18T04:40:54.438Z,13.96
2018-08-18T04:42:47.191Z,13.92
2018-08-18T04:43:47.126Z,13.85
2018-08-18T04:45:40.116Z,13.77
2018-08-18T04:46:40.138Z,13.81
2018-08-18T04:48:33.038Z,13.95
2018-08-18T04:49:32.950Z,14.02
2018-08-18T04:51:25.821Z,14.00
2018-08-18T04:52:25.740Z,13.82
2018-08-18T04:54:18.501Z,13.97
2018-08-18T04:55:18.416Z,14.12
2018-08-18T04:57:11.165Z,14.10
2018-08-18T04:58:11.087Z,14.00
2018-08-18T05:00:03.853Z,14.02
2018-08-18T05:01:03.765Z,14.10
2018-08-18T05:02:56.520Z,13.88
2018-08-18T05:03:56.439Z,13.95
2018-08-18T05:05:49.199Z,14.10
2018-08-18T05:06:49.109Z,14.12
2018-08-18T05:08:41.878Z,14.02
2018-08-18T05:09:41.799Z,13.91
2018-08-18T05:11:34.850Z,13.87
2018-08-18T05:12:34.718Z,13.78
2018-08-18T05:14:27.673Z,13.73
2018-08-18T05:15:27.586Z,13.78
2018-08-18T05:17:20.339Z,13.78
2018-08-18T05:18:20.261Z,13.70
2018-08-18T05:20:13.021Z,13.82
2018-08-18T05:21:12.931Z,13.78
2018-08-18T05:23:05.679Z,13.71
2018-08-18T05:24:05.605Z,13.77
2018-08-18T05:25:58.360Z,13.92
2018-08-18T05:26:58.273Z,13.91
2018-08-18T05:28:51.031Z,13.95
2018-08-18T05:29:50.952Z,13.99
2018-08-18T05:31:43.711Z,13.96
2018-08-18T05:32:43.630Z,13.97
2018-08-18T05:34:36.615Z,14.02
2018-08-18T05:35:36.528Z,13.92
2018-08-18T05:37:29.528Z,14.00
2018-08-18T05:38:29.451Z,13.96
2018-08-18T05:40:22.213Z,14.10
2018-08-18T05:41:22.123Z,14.18
2018-08-18T05:43:14.880Z,14.50
2018-08-18T05:44:14.804Z,14.45
2018-08-18T05:46:07.568Z,14.58
2018-08-18T05:47:07.479Z,14.47
2018-08-18T05:49:00.230Z,14.47
2018-08-18T05:50:00.152Z,14.43
2018-08-18T05:51:52.917Z,14.45
2018-08-18T05:52:52.831Z,14.43
2018-08-18T05:54:45.580Z,14.52
2018-08-18T05:55:45.503Z,14.51
2018-08-18T05:57:38.269Z,14.70
2018-08-18T05:58:38.187Z,14.70
2018-08-18T06:00:31.242Z,14.81
2018-08-18T06:01:31.156Z,14.78
2018-08-18T06:03:23.902Z,14.77
2018-08-18T06:04:23.828Z,14.78
2018-08-18T06:06:16.602Z,14.78
2018-08-18T06:07:16.504Z,14.83
2018-08-18T06:09:09.254Z,14.92
2018-08-18T06:10:09.182Z,15.09
2018-08-18T06:12:01.963Z,15.17
2018-08-18T06:13:01.857Z,15.14
2018-08-18T06:14:54.611Z,15.21
2018-08-18T06:15:54.532Z,15.27
2018-08-18T06:17:47.311Z,15.31
2018-08-18T06:18:47.214Z,15.34
2018-08-18T06:20:40.217Z,15.43
2018-08-18T06:21:40.136Z,15.46
2018-08-18T06:23:32.882Z,15.43
2018-08-18T06:24:32.808Z,15.44
2018-08-18T06:26:25.566Z,15.53
2018-08-18T06:27:25.488Z,15.78
2018-08-18T06:29:18.235Z,15.71
2018-08-18T06:30:18.159Z,15.72
2018-08-18T06:32:10.955Z,15.71
2018-08-18T06:33:10.869Z,15.69
2018-08-18T06:35:03.688Z,15.90
2018-08-18T06:36:03.544Z,15.92
2018-08-18T06:37:56.302Z,16.07
2018-08-18T06:38:56.218Z,16.07
2018-08-18T06:40:48.998Z,16.21
2018-08-18T06:41:49.086Z,16.25
2018-08-18T06:43:41.903Z,16.35
2018-08-18T06:44:41.845Z,16.24
2018-08-18T06:46:34.653Z,16.33
2018-08-18T06:47:34.565Z,16.34
2018-08-18T06:49:27.327Z,16.56
2018-08-18T06:50:27.317Z,16.68
2018-08-18T06:52:20.021Z,16.64
2018-08-18T06:53:19.935Z,16.56
2018-08-18T06:55:12.834Z,16.56
2018-08-18T06:56:12.611Z,16.68
2018-08-18T06:58:05.378Z,16.79
2018-08-18T06:59:05.289Z,16.75
2018-08-18T07:00:58.053Z,16.83
2018-08-18T07:01:57.969Z,16.82
2018-08-18T07:03:50.731Z,16.98
2018-08-18T07:04:50.644Z,17.03
2018-08-18T07:06:44.229Z,17.18
2018-08-18T07:07:44.151Z,17.19
2018-08-18T07:09:36.899Z,17.25
2018-08-18T07:10:36.827Z,17.30
2018-08-18T07:12:29.779Z,17.16
2018-08-18T07:13:29.697Z,17.28
2018-08-18T07:15:22.453Z,17.31
2018-08-18T07:16:22.379Z,17.30
2018-08-18T07:18:15.141Z,17.37
2018-08-18T07:19:15.108Z,17.48
2018-08-18T07:21:07.820Z,17.46
2018-08-18T07:22:07.745Z,17.55
2018-08-18T07:24:00.506Z,17.58
2018-08-18T07:25:00.423Z,17.56
2018-08-18T07:26:53.399Z,17.63
2018-08-18T07:27:53.312Z,17.71
2018-08-18T07:29:46.071Z,17.87
2018-08-18T07:30:45.995Z,17.96
2018-08-18T07:32:38.822Z,17.86
2018-08-18T07:33:38.739Z,17.89
2018-08-18T07:35:31.505Z,18.05
2018-08-18T07:36:31.424Z,18.11
2018-08-18T07:38:24.202Z,18.26
2018-08-18T07:39:24.112Z,18.25
2018-08-18T07:41:16.872Z,18.29
2018-08-18T07:42:16.796Z,18.35
2018-08-18T07:44:09.563Z,18.32
2018-08-18T07:45:09.476Z,18.35
2018-08-18T07:47:02.234Z,18.29
2018-08-18T07:48:02.235Z,18.23
2018-08-18T07:49:54.943Z,18.30
2018-08-18T07:50:54.843Z,18.33
2018-08-18T07:52:47.613Z,18.35
2018-08-18T07:53:47.523Z,18.47
2018-08-18T07:55:40.524Z,18.54
2018-08-18T07:56:40.450Z,18.52
2018-08-18T07:58:33.216Z,18.63
2018-08-18T07:59:33.165Z,18.69
2018-08-18T08:01:25.898Z,18.72
2018-08-18T08:02:25.817Z,18.75
2018-08-18T08:04:18.582Z,18.81
2018-08-18T08:05:18.496Z,18.85
2018-08-18T08:07:11.263Z,18.90
2018-08-18T08:08:11.223Z,19.00
2018-08-18T08:10:03.952Z,19.00
2018-08-18T08:11:03.869Z,19.06
2018-08-18T08:12:56.699Z,19.13
2018-08-18T08:13:56.556Z,19.22
2018-08-18T08:15:49.512Z,19.23
2018-08-18T08:16:49.442Z,19.29
2018-08-18T08:18:42.746Z,19.31
2018-08-18T08:19:42.666Z,19.32
2018-08-18T08:21:35.419Z,19.44
2018-08-18T08:22:35.345Z,19.43
2018-08-18T08:24:28.118Z,19.50
2018-08-18T08:25:28.034Z,19.65
2018-08-18T08:27:20.791Z,19.59
2018-08-18T08:28:20.716Z,19.76
2018-08-18T08:30:13.487Z,19.74
2018-08-18T08:31:13.400Z,19.74
2018-08-18T08:33:06.173Z,19.88
2018-08-18T08:34:06.092Z,19.92
2018-08-18T08:35:58.860Z,19.96
2018-08-18T08:36:58.780Z,20.01
2018-08-18T08:38:51.548Z,20.26
2018-08-18T08:39:51.464Z,20.28
2018-08-18T08:41:44.730Z,20.42
2018-08-18T08:42:44.672Z,20.39
2018-08-18T08:44:37.429Z,20.52
2018-08-18T08:45:37.350Z,20.59
2018-08-18T08:47:30.108Z,20.66
2018-08-18T08:48:30.038Z,20.76
2018-08-18T08:50:22.801Z,20.97
2018-08-18T08:51:22.722Z,21.01
2018-08-18T08:53:15.490Z,21.40
2018-08-18T08:54:15.411Z,21.56
2018-08-18T08:56:08.175Z,21.44
2018-08-18T08:57:08.101Z,21.46
2018-08-18T08:59:00.906Z,21.61
2018-08-18T09:00:00.804Z,21.68
2018-08-18T09:01:53.566Z,21.77
2018-08-18T09:02:53.493Z,21.84
2018-08-18T09:04:46.258Z,22.49
2018-08-18T09:05:46.185Z,23.17
2018-08-18T09:07:38.941Z,24.32
2018-08-18T09:08:38.874Z,24.81
2018-08-18T09:10:31.648Z,24.90
2018-08-18T09:11:31.568Z,24.47
2018-08-18T09:13:24.341Z,24.13
2018-08-18T09:14:24.264Z,24.30
2018-08-18T09:16:17.039Z,24.62
2018-08-18T09:17:16.959Z,24.05
2018-08-18T09:19:09.733Z,23.27
2018-08-18T09:20:09.656Z,23.66
2018-08-18T09:22:02.420Z,24.73
2018-08-18T09:23:02.348Z,25.33
2018-08-18T09:24:55.324Z,26.05
2018-08-18T09:25:55.253Z,26.51
2018-08-18T09:27:48.016Z,27.02
2018-08-18T09:28:47.947Z,27.29
2018-08-18T09:30:40.965Z,27.54
2018-08-18T09:31:40.887Z,27.78
2018-08-18T09:33:33.863Z,28.52
2018-08-18T09:34:33.794Z,27.92
2018-08-18T09:36:26.577Z,27.92
2018-08-18T09:37:26.503Z,28.21
2018-08-18T09:39:19.288Z,29.19
2018-08-18T09:40:19.219Z,29.78
2018-08-18T09:42:12.000Z,29.95
2018-08-18T09:43:11.933Z,30.29
2018-08-18T09:45:04.716Z,29.65
2018-08-18T09:46:04.649Z,29.55
2018-08-18T09:47:57.439Z,29.19
2018-08-18T09:48:57.366Z,29.39
2018-08-18T09:50:50.163Z,28.58
2018-08-18T09:51:50.086Z,28.78
2018-08-18T09:53:42.995Z,29.15
2018-08-18T09:54:42.925Z,28.64
2018-08-18T09:56:35.733Z,28.40
2018-08-18T09:57:35.658Z,28.06
2018-08-18T09:59:28.444Z,28.07
2018-08-18T10:00:28.371Z,28.48
2018-08-18T10:02:21.152Z,27.93
2018-08-18T10:03:21.091Z,26.47
2018-08-18T10:05:13.890Z,27.28
2018-08-18T10:06:13.846Z,26.65
2018-08-18T10:08:06.596Z,27.46
2018-08-18T10:09:06.531Z,27.97
2018-08-18T10:11:00.017Z,28.62
2018-08-18T10:11:59.939Z,28.81
2018-08-18T10:13:52.728Z,27.65
2018-08-18T10:14:52.662Z,27.21
2018-08-18T10:16:45.455Z,27.40
2018-08-18T10:17:45.379Z,27.49
2018-08-18T10:19:38.434Z,27.13
2018-08-18T10:20:38.358Z,27.18
2018-08-18T10:22:31.136Z,27.65
2018-08-18T10:23:31.073Z,27.85
2018-08-18T10:25:23.867Z,28.52
2018-08-18T10:26:23.796Z,28.21
2018-08-18T10:28:16.579Z,27.99
2018-08-18T10:29:16.514Z,28.34
2018-08-18T10:31:09.306Z,27.67
2018-08-18T10:32:09.231Z,27.43
2018-08-18T10:34:02.021Z,26.80
2018-08-18T10:35:01.952Z,26.20
2018-08-18T10:36:54.947Z,25.69
2018-08-18T10:37:54.869Z,25.13
2018-08-18T10:39:47.657Z,24.64
2018-08-18T10:40:47.609Z,24.47
2018-08-18T10:42:40.619Z,23.91
2018-08-18T10:43:40.549Z,24.09
2018-08-18T10:45:33.337Z,24.77
2018-08-18T10:46:33.249Z,24.90
2018-08-18T10:48:26.030Z,24.67
2018-08-18T10:49:25.962Z,24.42
2018-08-18T10:51:18.741Z,24.24
2018-08-18T10:52:18.668Z,24.34
2018-08-18T10:54:11.440Z,24.47
2018-08-18T10:55:11.376Z,24.45
2018-08-18T10:57:04.164Z,24.65
2018-08-18T10:58:04.083Z,24.73
2018-08-18T10:59:56.855Z,24.90
2018-08-18T11:00:56.786Z,24.95
2018-08-18T11:02:49.565Z,25.05
2018-08-18T11:03:49.489Z,25.03
2018-08-18T11:05:42.509Z,24.91
2018-08-18T11:06:42.431Z,25.03
2018-08-18T11:08:35.199Z,24.85
2018-08-18T11:09:35.124Z,24.65
2018-08-18T11:11:27.916Z,24.60
2018-08-18T11:12:27.833Z,24.60
2018-08-18T11:14:20.604Z,24.67
2018-08-18T11:15:20.527Z,24.60
2018-08-18T11:17:13.299Z,24.64
2018-08-18T11:18:13.225Z,24.60
2018-08-18T11:20:06.001Z,24.42
2018-08-18T11:21:05.927Z,24.42
2018-08-18T11:22:58.720Z,24.65
2018-08-18T11:23:58.627Z,24.93
2018-08-18T11:25:51.396Z,24.90
2018-08-18T11:26:51.325Z,25.03
2018-08-18T11:28:44.850Z,25.17
2018-08-18T11:29:44.647Z,25.05
2018-08-18T11:31:37.420Z,25.06
2018-08-18T11:32:37.340Z,24.99
2018-08-18T11:34:30.109Z,25.15
2018-08-18T11:35:30.036Z,25.10
2018-08-18T11:37:22.814Z,25.10
2018-08-18T11:38:22.733Z,25.18
2018-08-18T11:40:15.501Z,25.24
2018-08-18T11:41:15.433Z,25.27
2018-08-18T11:43:08.212Z,25.62
2018-08-18T11:44:08.138Z,25.60
2018-08-18T11:46:00.905Z,25.70
2018-08-18T11:47:00.871Z,25.76
2018-08-18T11:48:53.617Z,25.62
2018-08-18T11:49:53.537Z,25.72
2018-08-18T11:51:46.317Z,25.95
2018-08-18T11:52:46.233Z,25.92
2018-08-18T11:54:39.111Z,25.83
2018-08-18T11:55:39.041Z,25.99
2018-08-18T11:57:31.818Z,25.95
2018-08-18T11:58:31.736Z,25.95
2018-08-18T12:00:24.505Z,25.99
2018-08-18T12:01:24.432Z,26.02
2018-08-18T12:03:17.211Z,25.92
2018-08-18T12:04:17.132Z,25.82
2018-08-18T12:06:09.902Z,25.80
2018-08-18T12:07:09.829Z,25.90
2018-08-18T12:09:02.607Z,25.73
2018-08-18T12:10:02.527Z,25.80
2018-08-18T12:11:55.313Z,25.64
2018-08-18T12:12:55.237Z,25.75
2018-08-18T12:14:48.021Z,25.72
2018-08-18T12:15:47.948Z,25.70
2018-08-18T12:17:40.978Z,25.62
2018-08-18T12:18:40.900Z,25.69
2018-08-18T12:20:33.703Z,25.43
2018-08-18T12:21:33.599Z,25.46
2018-08-18T12:23:26.377Z,25.32
2018-08-18T12:24:26.305Z,25.33
2018-08-18T12:26:19.068Z,25.33
2018-08-18T12:27:19.000Z,25.47
2018-08-18T12:29:11.780Z,25.62
2018-08-18T12:30:11.698Z,25.77
2018-08-18T12:32:04.469Z,25.88
2018-08-18T12:33:04.395Z,25.83
2018-08-18T12:34:57.171Z,25.57
2018-08-18T12:35:57.094Z,25.61
2018-08-18T12:37:49.873Z,25.67
2018-08-18T12:38:49.791Z,25.79
2018-08-18T12:40:42.675Z,25.98
2018-08-18T12:41:42.607Z,25.95
2018-08-18T12:43:35.458Z,25.95
2018-08-18T12:44:35.324Z,26.02
2018-08-18T12:46:28.069Z,26.02
2018-08-18T12:47:27.998Z,25.94
2018-08-18T12:49:20.774Z,25.72
2018-08-18T12:50:20.700Z,25.73
2018-08-18T12:52:13.466Z,25.42
2018-08-18T12:53:13.400Z,25.50
2018-08-18T12:55:06.170Z,25.62
2018-08-18T12:56:06.093Z,25.82
2018-08-18T12:57:58.884Z,26.01
2018-08-18T12:58:58.806Z,26.10
2018-08-18T13:00:51.576Z,26.01
2018-08-18T13:01:51.504Z,26.05
2018-08-18T13:03:44.517Z,26.26
2018-08-18T13:04:44.439Z,26.26
2018-08-18T13:06:37.222Z,26.23
2018-08-18T13:07:37.145Z,26.37
2018-08-18T13:09:29.922Z,26.37
2018-08-18T13:10:29.846Z,26.28
2018-08-18T13:12:22.628Z,26.09
2018-08-18T13:13:22.545Z,26.20
2018-08-18T13:15:15.562Z,26.23
2018-08-18T13:16:15.439Z,26.21
2018-08-18T13:18:08.222Z,26.21
2018-08-18T13:19:08.138Z,26.07
2018-08-18T13:21:00.911Z,26.10
2018-08-18T13:22:00.842Z,26.25
2018-08-18T13:23:53.647Z,26.44
2018-08-18T13:24:53.533Z,26.54
2018-08-18T13:26:46.310Z,26.66
2018-08-18T13:27:46.240Z,26.66
2018-08-18T13:29:39.024Z,27.06
2018-08-18T13:30:38.947Z,27.22
2018-08-18T13:32:31.742Z,27.02
2018-08-18T13:33:31.671Z,27.04
2018-08-18T13:35:24.456Z,27.25
2018-08-18T13:36:24.378Z,27.19
2018-08-18T13:38:17.182Z,27.32
2018-08-18T13:39:17.087Z,27.39
2018-08-18T13:41:09.861Z,27.28
2018-08-18T13:42:09.790Z,27.21
2018-08-18T13:44:02.571Z,27.25
2018-08-18T13:45:02.490Z,27.46
2018-08-18T13:46:55.313Z,27.51
2018-08-18T13:47:55.200Z,27.50
2018-08-18T13:49:47.981Z,27.54
2018-08-18T13:50:47.914Z,27.44
2018-08-18T13:52:40.727Z,27.44
2018-08-18T13:53:40.610Z,27.44
2018-08-18T13:55:33.392Z,27.63
2018-08-18T13:56:33.316Z,27.72
2018-08-18T13:58:26.089Z,27.70
2018-08-18T13:59:26.021Z,27.43
2018-08-18T14:01:18.801Z,27.21
2018-08-18T14:02:18.724Z,27.22
2018-08-18T14:04:11.553Z,27.21
2018-08-18T14:05:11.423Z,27.19
2018-08-18T14:07:04.193Z,27.17
2018-08-18T14:08:04.230Z,27.28
2018-08-18T14:09:56.918Z,27.10
2018-08-18T14:10:56.842Z,27.44
2018-08-18T14:12:49.601Z,28.31
2018-08-18T14:13:49.528Z,28.68
2018-08-18T14:15:42.542Z,29.61
2018-08-18T14:16:42.463Z,30.35
2018-08-18T14:18:35.252Z,31.35
2018-08-18T14:19:35.192Z,31.47
2018-08-18T14:21:27.968Z,31.07
2018-08-18T14:22:27.895Z,31.35
2018-08-18T14:24:20.672Z,32.60
2018-08-18T14:25:20.599Z,33.00
2018-08-18T14:27:13.377Z,32.10
2018-08-18T14:28:13.311Z,31.50
2018-08-18T14:30:06.095Z,31.93
2018-08-18T14:31:06.028Z,32.72
2018-08-18T14:32:58.998Z,32.29
2018-08-18T14:33:58.948Z,32.84
2018-08-18T14:35:51.726Z,33.31
2018-08-18T14:36:51.658Z,33.51
2018-08-18T14:38:44.676Z,33.39
2018-08-18T14:39:44.611Z,33.47
2018-08-18T14:41:37.411Z,33.78
2018-08-18T14:42:37.335Z,34.49
2018-08-18T14:44:30.133Z,34.35
2018-08-18T14:45:30.059Z,34.91
2018-08-18T14:47:22.862Z,35.58
2018-08-18T14:48:22.787Z,35.81
2018-08-18T14:50:15.589Z,35.89
2018-08-18T14:51:15.519Z,36.17
2018-08-18T14:53:08.380Z,35.14
2018-08-18T14:54:08.344Z,34.73
2018-08-18T14:56:01.089Z,34.99
2018-08-18T14:57:01.024Z,35.40
2018-08-18T14:58:53.813Z,35.80
2018-08-18T14:59:53.755Z,35.28
2018-08-18T15:01:46.749Z,33.78
2018-08-18T15:02:46.679Z,33.49
2018-08-18T15:04:39.478Z,33.35
2018-08-18T15:05:39.415Z,33.68
2018-08-18T15:07:32.225Z,34.31
2018-08-18T15:08:32.154Z,34.31
2018-08-18T15:10:24.948Z,34.85
2018-08-18T15:11:24.881Z,34.37
2018-08-18T15:13:17.682Z,34.17
2018-08-18T15:14:17.634Z,33.82
2018-08-18T15:16:10.923Z,33.22
2018-08-18T15:17:10.854Z,32.89
2018-08-18T15:19:03.647Z,33.84
2018-08-18T15:20:03.585Z,34.49
2018-08-18T15:21:56.416Z,34.89
2018-08-18T15:22:56.312Z,34.81
2018-08-18T15:24:49.099Z,35.19
2018-08-18T15:25:49.049Z,35.18
2018-08-18T15:27:41.837Z,35.10
2018-08-18T15:28:41.768Z,34.88
2018-08-18T15:30:34.790Z,34.73
2018-08-18T15:31:34.708Z,34.88
2018-08-18T15:33:27.513Z,34.69
2018-08-18T15:34:27.448Z,35.10
2018-08-18T15:36:20.435Z,35.14
2018-08-18T15:37:20.368Z,35.14
2018-08-18T15:39:13.818Z,35.66
2018-08-18T15:40:13.586Z,35.74
2018-08-18T15:42:06.382Z,35.31
2018-08-18T15:43:06.316Z,35.52
2018-08-18T15:44:59.102Z,35.07
2018-08-18T15:45:59.040Z,34.24
2018-08-18T15:47:51.844Z,34.22
2018-08-18T15:48:51.773Z,34.08
2018-08-18T15:50:45.379Z,33.94
2018-08-18T15:51:45.317Z,34.05
2018-08-18T15:53:38.150Z,33.06
2018-08-18T15:54:38.046Z,33.75
2018-08-18T15:56:30.840Z,35.00
2018-08-18T15:57:30.772Z,35.48
2018-08-18T15:59:23.558Z,35.44
2018-08-18T16:00:23.492Z,35.48
2018-08-18T16:02:16.286Z,34.94
2018-08-18T16:03:16.219Z,35.47
2018-08-18T16:05:09.003Z,35.04
2018-08-18T16:06:08.944Z,35.28
2018-08-18T16:08:01.746Z,35.29
2018-08-18T16:09:01.669Z,35.59
2018-08-18T16:10:54.452Z,35.02
2018-08-18T16:11:54.392Z,35.18
2018-08-18T16:13:47.225Z,34.66
2018-08-18T16:14:47.120Z,34.69
2018-08-18T16:16:39.918Z,34.65
2018-08-18T16:17:39.849Z,35.34
2018-08-18T16:19:32.829Z,35.37
2018-08-18T16:20:32.767Z,35.18
2018-08-18T16:22:25.567Z,35.41
2018-08-18T16:23:25.496Z,34.96
2018-08-18T16:25:18.303Z,34.92
2018-08-18T16:26:18.241Z,34.88
2018-08-18T16:28:11.041Z,35.43
2018-08-18T16:29:10.968Z,35.48
2018-08-18T16:31:03.949Z,34.43
2018-08-18T16:32:03.888Z,33.07
2018-08-18T16:33:56.695Z,33.81
2018-08-18T16:34:56.617Z,33.42
2018-08-18T16:36:49.409Z,33.66
2018-08-18T16:37:49.344Z,33.65
2018-08-18T16:39:42.211Z,32.85
2018-08-18T16:40:42.143Z,33.03
2018-08-18T16:42:34.938Z,32.44
2018-08-18T16:43:34.865Z,32.25
2018-08-18T16:45:27.645Z,31.56
2018-08-18T16:46:27.583Z,31.25
2018-08-18T16:48:20.383Z,30.54
2018-08-18T16:49:20.301Z,30.17
2018-08-18T16:51:13.098Z,29.86
2018-08-18T16:52:13.019Z,29.94
2018-08-18T16:54:05.813Z,29.71
2018-08-18T16:55:05.737Z,29.46
2018-08-18T16:56:58.517Z,29.82
2018-08-18T16:57:58.459Z,29.97
2018-08-18T16:59:51.447Z,30.47
2018-08-18T17:00:51.371Z,30.10
2018-08-18T17:02:44.396Z,29.76
2018-08-18T17:03:44.331Z,29.55
2018-08-18T17:05:37.369Z,28.59
2018-08-18T17:06:37.307Z,28.51
2018-08-18T17:08:30.074Z,28.12
2018-08-18T17:09:29.993Z,27.85
2018-08-18T17:11:22.772Z,27.57
2018-08-18T17:12:22.705Z,27.65
2018-08-18T17:14:15.491Z,27.72
2018-08-18T17:15:15.406Z,27.67
2018-08-18T17:17:08.189Z,27.79
2018-08-18T17:18:08.124Z,27.85
2018-08-18T17:20:00.927Z,27.78
2018-08-18T17:21:00.851Z,27.90
2018-08-18T17:22:53.629Z,27.77
2018-08-18T17:23:53.558Z,27.84
2018-08-18T17:25:46.336Z,27.55
2018-08-18T17:26:46.261Z,27.59
2018-08-18T17:28:39.051Z,27.25
2018-08-18T17:29:38.969Z,27.19
2018-08-18T17:31:31.803Z,26.89
2018-08-18T17:32:31.736Z,26.85
2018-08-18T17:34:24.513Z,26.70
2018-08-18T17:35:24.438Z,26.57
2018-08-18T17:37:17.214Z,26.65
2018-08-18T17:38:17.141Z,26.63
2018-08-18T17:40:09.918Z,26.75
2018-08-18T17:41:09.840Z,26.85
2018-08-18T17:43:02.617Z,26.67
2018-08-18T17:44:02.553Z,26.73
2018-08-18T17:45:55.548Z,26.57
2018-08-18T17:46:55.450Z,26.63
2018-08-18T17:48:48.234Z,26.52
2018-08-18T17:49:48.155Z,26.50
2018-08-18T17:51:41.168Z,26.30
2018-08-18T17:52:41.096Z,26.32
2018-08-18T17:54:34.133Z,26.32
2018-08-18T17:55:34.050Z,26.17
2018-08-18T17:57:26.822Z,26.25
2018-08-18T17:58:26.747Z,26.12
2018-08-18T18:00:19.627Z,26.23
2018-08-18T18:01:19.450Z,26.13
2018-08-18T18:03:12.226Z,26.06
2018-08-18T18:04:12.159Z,26.07
2018-08-18T18:06:04.936Z,26.02
2018-08-18T18:07:04.856Z,25.94
2018-08-18T18:08:57.644Z,25.95
2018-08-18T18:09:57.558Z,25.90
2018-08-18T18:11:50.326Z,25.87
2018-08-18T18:12:50.255Z,25.73
2018-08-18T18:14:43.277Z,25.65
2018-08-18T18:15:43.201Z,25.62
2018-08-18T18:17:35.978Z,25.46
2018-08-18T18:18:35.905Z,25.54
2018-08-18T18:20:28.718Z,25.43
2018-08-18T18:21:28.631Z,25.39
2018-08-18T18:23:21.404Z,25.25
2018-08-18T18:24:21.332Z,25.23
2018-08-18T18:26:14.102Z,25.15
2018-08-18T18:27:14.019Z,25.10
2018-08-18T18:29:06.791Z,25.17
2018-08-18T18:30:06.720Z,25.15
2018-08-18T18:31:59.498Z,25.03